Time;durP1;ratioP1;P1;durP2;ratioP2;P2;SDS_P1;SDS_P2;PMS_P1;PMS_P2;Temp;Humidity;BMP_temperature;BMP_pressure;BME280_temperature;BME280_humidity;BME280_pressure;Samples;Min_cycle;Max_cycle;Signal;HPM_P1;HPM_P2
2022/01/20 00:00:13;;;;;;;2.43;1.10;;;;;;;;;;5015214;28;20208;-61
2022/01/20 00:02:41;;;;;;;0.90;0.90;;;;;;;;;;5028237;28;20310;-62
2022/01/20 00:05:14;;;;;;;0.80;0.80;;;;;;;;;;5028620;28;20302;-61
2022/01/20 00:08:00;;;;;;;1.40;1.17;;;;;;;;;;5028372;28;20278;-62
2022/01/20 00:26:52;;;;;;;0.80;0.80;;;;;;;;;;5028290;28;20671;-61
2022/01/20 00:29:27;;;;;;;0.83;0.83;;;;;;;;;;5026044;28;20238;-59
2022/01/20 00:32:08;;;;;;;0.90;0.90;;;;;;;;;;5032133;28;20433;-59
2022/01/20 00:37:19;;;;;;;1.17;1.17;;;;;;;;;;5031266;28;20266;-61
2022/01/20 00:39:47;;;;;;;1.27;1.17;;;;;;;;;;5031824;28;20212;-61
2022/01/20 00:42:15;;;;;;;1.03;0.97;;;;;;;;;;5032059;28;20223;-61
2022/01/20 00:44:42;;;;;;;1.23;1.13;;;;;;;;;;5031620;28;20214;-62
2022/01/20 00:47:09;;;;;;;1.00;1.00;;;;;;;;;;5031352;28;20208;-61
2022/01/20 00:49:36;;;;;;;0.97;0.97;;;;;;;;;;5031445;28;20233;-61
2022/01/20 00:52:04;;;;;;;1.40;1.30;;;;;;;;;;5031313;28;20565;-61
2022/01/20 00:54:31;;;;;;;0.90;0.90;;;;;;;;;;5031447;28;20200;-61
2022/01/20 00:56:59;;;;;;;1.10;1.10;;;;;;;;;;5031388;28;20212;-61
2022/01/20 00:59:28;;;;;;;0.80;0.80;;;;;;;;;;5031895;28;20204;-60
2022/01/20 01:01:55;;;;;;;0.77;0.77;;;;;;;;;;5031588;28;20301;-60
2022/01/20 01:04:23;;;;;;;1.37;1.37;;;;;;;;;;5029913;28;20579;-59
2022/01/20 01:07:09;;;;;;;1.13;1.13;;;;;;;;;;5030906;28;20205;-60
2022/01/20 01:09:38;;;;;;;1.20;1.10;;;;;;;;;;5030941;28;20739;-60
2022/01/20 01:12:10;;;;;;;0.90;0.90;;;;;;;;;;5031397;28;20291;-60
2022/01/20 01:14:42;;;;;;;1.17;1.07;;;;;;;;;;5030657;28;20212;-60
2022/01/20 01:20:11;;;;;;;0.80;0.80;;;;;;;;;;5031450;28;20200;-60
2022/01/20 01:22:38;;;;;;;1.10;1.10;;;;;;;;;;5031194;28;20331;-61
2022/01/20 01:25:06;;;;;;;0.70;0.70;;;;;;;;;;5030626;28;20213;-60
2022/01/20 01:27:38;;;;;;;0.97;0.97;;;;;;;;;;5030769;28;20216;-61
2022/01/20 01:30:13;;;;;;;0.77;0.77;;;;;;;;;;5030672;28;20202;-61
2022/01/20 01:32:49;;;;;;;0.83;0.83;;;;;;;;;;5030480;28;20205;-61
2022/01/20 01:35:16;;;;;;;1.33;0.80;;;;;;;;;;5030435;28;20248;-61
2022/01/20 01:40:30;;;;;;;1.07;1.07;;;;;;;;;;5030507;28;20204;-61
2022/01/20 01:43:02;;;;;;;2.33;1.30;;;;;;;;;;5030933;28;20228;-61
2022/01/20 01:45:30;;;;;;;1.00;1.00;;;;;;;;;;5030355;28;20228;-60
2022/01/20 01:47:57;;;;;;;0.83;0.73;;;;;;;;;;5030627;28;20678;-61
2022/01/20 01:50:25;;;;;;;1.10;1.10;;;;;;;;;;5030778;28;20221;-61
2022/01/20 01:52:52;;;;;;;1.00;1.00;;;;;;;;;;5029997;28;20211;-61
2022/01/20 01:55:20;;;;;;;1.10;1.07;;;;;;;;;;5030421;28;20266;-60
2022/01/20 01:57:47;;;;;;;1.23;1.10;;;;;;;;;;5030130;28;20621;-61
2022/01/20 02:00:16;;;;;;;0.80;0.80;;;;;;;;;;5030629;28;20262;-61
2022/01/20 02:02:44;;;;;;;0.90;0.90;;;;;;;;;;5029522;28;20228;-61
2022/01/20 02:05:13;;;;;;;0.87;0.87;;;;;;;;;;5030012;28;20206;-61
2022/01/20 02:08:16;;;;;;;0.63;0.60;;;;;;;;;;5029595;28;20199;-61
2022/01/20 02:18:59;;;;;;;0.80;0.80;;;;;;;;;;5028629;28;20694;-61
2022/01/20 02:21:27;;;;;;;1.67;1.40;;;;;;;;;;5028928;28;20675;-61
2022/01/20 02:23:54;;;;;;;0.63;0.63;;;;;;;;;;5029396;28;20213;-61
2022/01/20 02:26:21;;;;;;;0.87;0.87;;;;;;;;;;5029142;28;20653;-61
2022/01/20 02:28:48;;;;;;;0.97;0.80;;;;;;;;;;5028565;28;20220;-61
2022/01/20 02:31:15;;;;;;;0.97;0.80;;;;;;;;;;5028855;28;20200;-61
2022/01/20 02:33:42;;;;;;;0.77;0.77;;;;;;;;;;5029077;28;20313;-61
2022/01/20 02:36:14;;;;;;;0.90;0.90;;;;;;;;;;5029028;28;20212;-60
2022/01/20 02:38:46;;;;;;;1.47;0.97;;;;;;;;;;5027570;28;20571;-61
2022/01/20 02:46:43;;;;;;;0.97;0.73;;;;;;;;;;5029213;28;20249;-61
2022/01/20 02:49:14;;;;;;;1.03;0.77;;;;;;;;;;5028197;28;20214;-61
2022/01/20 02:51:47;;;;;;;0.97;0.90;;;;;;;;;;5028439;28;20246;-61
2022/01/20 02:54:15;;;;;;;3.67;1.17;;;;;;;;;;5028389;28;20263;-61
2022/01/20 02:56:42;;;;;;;0.80;0.80;;;;;;;;;;5028985;28;20204;-61
2022/01/20 02:59:09;;;;;;;4.00;0.93;;;;;;;;;;5029083;28;20257;-61
2022/01/20 03:01:36;;;;;;;1.20;1.10;;;;;;;;;;5028999;28;20208;-60
2022/01/20 03:04:03;;;;;;;1.07;1.07;;;;;;;;;;5029671;28;20208;-60
2022/01/20 03:06:31;;;;;;;1.80;1.00;;;;;;;;;;5028794;28;20600;-60
2022/01/20 03:08:58;;;;;;;0.97;0.97;;;;;;;;;;5028965;28;20277;-61
2022/01/20 03:11:26;;;;;;;5.23;0.83;;;;;;;;;;5029172;28;20218;-61
2022/01/20 03:13:53;;;;;;;4.17;1.03;;;;;;;;;;5028672;28;21010;-60
2022/01/20 03:16:20;;;;;;;0.70;0.70;;;;;;;;;;5028066;28;20207;-61
2022/01/20 03:18:47;;;;;;;1.53;0.93;;;;;;;;;;5028529;28;20208;-61
2022/01/20 03:21:14;;;;;;;1.00;1.00;;;;;;;;;;5029368;28;20208;-61
2022/01/20 03:23:41;;;;;;;0.80;0.80;;;;;;;;;;5028518;28;20342;-60
2022/01/20 03:26:08;;;;;;;4.47;0.83;;;;;;;;;;5028414;28;20212;-60
2022/01/20 03:28:37;;;;;;;0.93;0.80;;;;;;;;;;5028865;28;20270;-61
2022/01/20 03:31:04;;;;;;;5.47;1.50;;;;;;;;;;5028326;28;20269;-61
2022/01/20 03:33:31;;;;;;;2.33;0.77;;;;;;;;;;5028474;28;20204;-61
2022/01/20 03:35:58;;;;;;;3.60;0.90;;;;;;;;;;5029431;28;20222;-61
2022/01/20 03:38:25;;;;;;;1.70;0.70;;;;;;;;;;5028146;28;20207;-60
2022/01/20 03:40:52;;;;;;;1.13;0.97;;;;;;;;;;5028075;28;20207;-60
2022/01/20 03:43:19;;;;;;;2.40;1.13;;;;;;;;;;5028911;28;20227;-60
2022/01/20 03:45:50;;;;;;;2.53;0.97;;;;;;;;;;5028823;28;20214;-60
2022/01/20 03:48:18;;;;;;;14.03;0.93;;;;;;;;;;5028890;28;20212;-61
2022/01/20 03:51:00;;;;;;;1.37;0.83;;;;;;;;;;5028367;28;20333;-61
2022/01/20 03:53:28;;;;;;;0.90;0.90;;;;;;;;;;5027186;28;20215;-61
2022/01/20 03:55:55;;;;;;;0.40;0.40;;;;;;;;;;5028077;28;20262;-61
2022/01/20 03:58:22;;;;;;;0.43;0.43;;;;;;;;;;5028732;28;20294;-61
2022/01/20 04:00:50;;;;;;;2.47;0.80;;;;;;;;;;5028626;28;20212;-61
2022/01/20 04:03:17;;;;;;;0.77;0.77;;;;;;;;;;5031097;28;20638;-61
2022/01/20 04:05:56;;;;;;;2.37;0.67;;;;;;;;;;5032594;28;20208;-61
2022/01/20 04:08:23;;;;;;;1.13;0.83;;;;;;;;;;5032512;28;21042;-60
2022/01/20 04:10:50;;;;;;;3.73;1.17;;;;;;;;;;5032217;28;20245;-61
2022/01/20 04:13:18;;;;;;;2.60;1.10;;;;;;;;;;5032566;28;20229;-60
2022/01/20 04:15:45;;;;;;;3.20;0.83;;;;;;;;;;5032086;28;20232;-60
2022/01/20 04:18:19;;;;;;;1.23;1.13;;;;;;;;;;5032311;28;20271;-60
2022/01/20 04:20:46;;;;;;;2.73;1.13;;;;;;;;;;5032290;28;20205;-60
2022/01/20 04:23:13;;;;;;;2.37;1.30;;;;;;;;;;5032697;28;20231;-60
2022/01/20 04:25:40;;;;;;;2.23;0.73;;;;;;;;;;5032199;28;20254;-60
2022/01/20 04:28:07;;;;;;;0.70;0.70;;;;;;;;;;5032178;28;20263;-61
2022/01/20 04:30:34;;;;;;;6.17;0.97;;;;;;;;;;5031501;28;20919;-60
2022/01/20 04:33:01;;;;;;;1.00;1.00;;;;;;;;;;5032356;28;20204;-61
2022/01/20 04:35:30;;;;;;;2.87;0.90;;;;;;;;;;5031901;28;20722;-60
2022/01/20 04:37:58;;;;;;;1.13;0.90;;;;;;;;;;5032336;28;20216;-61
2022/01/20 04:40:25;;;;;;;3.80;0.90;;;;;;;;;;5032047;28;20241;-60
2022/01/20 04:42:53;;;;;;;2.03;1.03;;;;;;;;;;5031610;28;20227;-60
2022/01/20 04:45:26;;;;;;;4.20;0.90;;;;;;;;;;5031635;28;20208;-60
2022/01/20 04:48:01;;;;;;;0.60;0.60;;;;;;;;;;5028704;28;20206;-60
2022/01/20 04:58:45;;;;;;;3.13;0.87;;;;;;;;;;5031648;28;20207;-60
2022/01/20 05:01:12;;;;;;;1.23;0.73;;;;;;;;;;5031593;28;20197;-59
2022/01/20 05:03:39;;;;;;;3.23;0.93;;;;;;;;;;5030751;28;20229;-60
2022/01/20 05:06:09;;;;;;;3.03;0.60;;;;;;;;;;5031691;28;20249;-59
2022/01/20 05:08:36;;;;;;;8.17;0.90;;;;;;;;;;5014929;28;20217;-59
2022/01/20 05:11:04;;;;;;;1.20;0.70;;;;;;;;;;5028367;28;20991;-59
2022/01/20 05:13:37;;;;;;;0.80;0.53;;;;;;;;;;5030466;28;20227;-60
2022/01/20 05:16:05;;;;;;;2.57;1.43;;;;;;;;;;5027783;28;20843;-60
2022/01/20 05:18:32;;;;;;;0.60;0.60;;;;;;;;;;5030741;28;20250;-60
2022/01/20 05:20:59;;;;;;;0.53;0.53;;;;;;;;;;5031089;28;20690;-60
2022/01/20 05:23:27;;;;;;;1.70;0.63;;;;;;;;;;5031676;28;20766;-60
2022/01/20 05:25:54;;;;;;;3.50;0.70;;;;;;;;;;5030090;28;20580;-60
2022/01/20 05:28:21;;;;;;;5.27;0.70;;;;;;;;;;5030758;28;20259;-60
2022/01/20 05:30:48;;;;;;;1.83;0.70;;;;;;;;;;5031090;28;20208;-60
2022/01/20 05:33:15;;;;;;;2.40;0.90;;;;;;;;;;5031100;28;20258;-61
2022/01/20 05:35:42;;;;;;;11.83;0.97;;;;;;;;;;5030613;28;20220;-60
2022/01/20 05:38:11;;;;;;;1.50;0.80;;;;;;;;;;5031532;28;20567;-61
2022/01/20 05:40:40;;;;;;;3.27;1.00;;;;;;;;;;5030727;28;20205;-59
2022/01/20 05:43:07;;;;;;;3.70;0.50;;;;;;;;;;5031037;28;20247;-60
2022/01/20 05:45:35;;;;;;;6.07;1.10;;;;;;;;;;5030319;28;20894;-59
2022/01/20 05:48:11;;;;;;;1.63;1.20;;;;;;;;;;5030716;28;20205;-60
2022/01/20 05:50:38;;;;;;;1.80;0.70;;;;;;;;;;5030953;28;20234;-60
2022/01/20 05:53:05;;;;;;;4.97;1.33;;;;;;;;;;5030569;28;20213;-60
2022/01/20 05:55:33;;;;;;;1.80;0.77;;;;;;;;;;5029219;28;20303;-59
2022/01/20 05:58:05;;;;;;;0.67;0.67;;;;;;;;;;5028168;28;20204;-60
2022/01/20 06:00:32;;;;;;;8.10;3.27;;;;;;;;;;5029986;28;20241;-60
2022/01/20 06:05:44;;;;;;;6.40;1.50;;;;;;;;;;5014419;28;20250;-60
2022/01/20 06:08:11;;;;;;;3.17;0.93;;;;;;;;;;5030184;28;20208;-60
2022/01/20 06:10:38;;;;;;;0.43;0.40;;;;;;;;;;5028806;28;20271;-60
2022/01/20 06:13:07;;;;;;;0.40;0.40;;;;;;;;;;5029769;28;20638;-60
2022/01/20 06:15:34;;;;;;;2.20;0.47;;;;;;;;;;5028958;28;20733;-60
2022/01/20 06:18:01;;;;;;;1.87;1.20;;;;;;;;;;5029168;28;20275;-61
2022/01/20 06:20:29;;;;;;;0.50;0.40;;;;;;;;;;5020294;28;20204;-61
2022/01/20 06:22:56;;;;;;;1.83;0.90;;;;;;;;;;5029509;28;20236;-61
2022/01/20 06:25:23;;;;;;;2.37;0.77;;;;;;;;;;5027598;28;20251;-60
2022/01/20 06:27:50;;;;;;;1.13;0.53;;;;;;;;;;5026987;28;20205;-60
2022/01/20 06:30:19;;;;;;;0.77;0.67;;;;;;;;;;5029134;28;20217;-60
2022/01/20 06:32:46;;;;;;;2.47;0.87;;;;;;;;;;5009955;28;20224;-61
2022/01/20 06:35:13;;;;;;;2.40;1.10;;;;;;;;;;5023464;28;20228;-61
2022/01/20 06:37:40;;;;;;;2.93;0.70;;;;;;;;;;5027789;28;20235;-61
2022/01/20 06:40:08;;;;;;;1.40;0.53;;;;;;;;;;5026938;28;20208;-61
2022/01/20 06:42:35;;;;;;;1.10;0.63;;;;;;;;;;5027028;28;20655;-60
2022/01/20 06:45:03;;;;;;;1.63;0.63;;;;;;;;;;5029022;28;20228;-60
2022/01/20 06:47:31;;;;;;;2.83;0.90;;;;;;;;;;5029456;28;20204;-61
2022/01/20 06:49:58;;;;;;;1.03;1.03;;;;;;;;;;5033240;28;20819;-60
2022/01/20 06:52:25;;;;;;;3.23;1.27;;;;;;;;;;5028767;28;20204;-60
2022/01/20 06:54:52;;;;;;;3.17;0.93;;;;;;;;;;5027348;28;20204;-60
2022/01/20 06:57:19;;;;;;;1.90;0.90;;;;;;;;;;5027443;28;20213;-62
2022/01/20 06:59:46;;;;;;;5.40;1.70;;;;;;;;;;5028997;28;20737;-60
2022/01/20 07:02:13;;;;;;;6.87;0.77;;;;;;;;;;5029402;28;20236;-60
2022/01/20 07:04:43;;;;;;;2.03;0.80;;;;;;;;;;5029140;28;20235;-61
2022/01/20 07:07:11;;;;;;;1.63;0.63;;;;;;;;;;5029573;28;20221;-61
2022/01/20 07:09:39;;;;;;;1.03;0.43;;;;;;;;;;5029017;28;20266;-61
2022/01/20 07:12:06;;;;;;;0.43;0.43;;;;;;;;;;5029030;28;20251;-61
2022/01/20 07:14:33;;;;;;;4.30;0.50;;;;;;;;;;5028857;28;20691;-61
2022/01/20 07:17:00;;;;;;;1.43;0.53;;;;;;;;;;5029081;28;20581;-61
2022/01/20 07:19:27;;;;;;;4.10;0.20;;;;;;;;;;5029316;28;20208;-61
2022/01/20 07:21:56;;;;;;;3.77;0.60;;;;;;;;;;5028872;28;20282;-61
2022/01/20 07:24:23;;;;;;;1.03;0.33;;;;;;;;;;5028605;28;20220;-60
2022/01/20 07:26:50;;;;;;;1.03;0.33;;;;;;;;;;5028793;28;20208;-61
2022/01/20 07:29:17;;;;;;;7.13;0.80;;;;;;;;;;5028879;28;20204;-61
2022/01/20 07:31:44;;;;;;;0.53;0.20;;;;;;;;;;5028964;28;20254;-59
2022/01/20 07:34:11;;;;;;;2.83;0.60;;;;;;;;;;5028667;28;20236;-61
2022/01/20 07:36:38;;;;;;;0.30;0.30;;;;;;;;;;5028445;28;20282;-60
2022/01/20 07:39:07;;;;;;;4.33;0.27;;;;;;;;;;5028568;28;20576;-60
2022/01/20 07:41:34;;;;;;;0.07;0.07;;;;;;;;;;5028654;28;20214;-62
2022/01/20 07:44:01;;;;;;;0.10;0.10;;;;;;;;;;5028858;28;21046;-60
2022/01/20 07:46:28;;;;;;;3.20;0.40;;;;;;;;;;5028558;28;20208;-60
2022/01/20 07:48:55;;;;;;;0.20;0.20;;;;;;;;;;5028962;28;20278;-60
2022/01/20 07:51:22;;;;;;;0.87;0.30;;;;;;;;;;5028639;28;20236;-60
2022/01/20 07:53:49;;;;;;;0.20;0.20;;;;;;;;;;5028023;28;20214;-59
2022/01/20 07:56:18;;;;;;;0.97;0.50;;;;;;;;;;5027986;28;20226;-60
2022/01/20 07:58:45;;;;;;;2.10;0.30;;;;;;;;;;5025648;28;20220;-61
2022/01/20 08:01:12;;;;;;;1.20;0.30;;;;;;;;;;5008588;28;20213;-60
2022/01/20 08:03:39;;;;;;;0.87;0.27;;;;;;;;;;5008556;28;20230;-60
2022/01/20 08:06:06;;;;;;;2.30;0.57;;;;;;;;;;5008308;28;20209;-59
2022/01/20 08:08:33;;;;;;;0.47;0.40;;;;;;;;;;5026682;28;20294;-62
2022/01/20 08:11:00;;;;;;;1.23;0.53;;;;;;;;;;5028391;28;20204;-60
2022/01/20 08:13:28;;;;;;;1.57;0.47;;;;;;;;;;5028317;28;20208;-59
2022/01/20 08:15:55;;;;;;;3.70;0.77;;;;;;;;;;5028747;28;20205;-59
2022/01/20 08:18:22;;;;;;;3.77;0.47;;;;;;;;;;5028383;28;20271;-59
2022/01/20 08:20:49;;;;;;;1.03;0.50;;;;;;;;;;5028197;28;20282;-59
2022/01/20 08:23:17;;;;;;;2.93;0.20;;;;;;;;;;5028145;28;20275;-60
2022/01/20 08:25:44;;;;;;;1.80;0.40;;;;;;;;;;5028312;28;20204;-60
2022/01/20 08:28:12;;;;;;;1.23;0.30;;;;;;;;;;5028179;28;20282;-60
2022/01/20 08:30:41;;;;;;;0.40;0.40;;;;;;;;;;5028496;28;20234;-60
2022/01/20 08:33:08;;;;;;;0.50;0.40;;;;;;;;;;5028053;28;20211;-60
2022/01/20 08:35:35;;;;;;;0.40;0.17;;;;;;;;;;5027649;28;20229;-60
2022/01/20 08:38:03;;;;;;;1.40;0.40;;;;;;;;;;5025711;28;20323;-59
2022/01/20 08:40:30;;;;;;;0.20;0.20;;;;;;;;;;5027370;28;20243;-59
2022/01/20 08:42:58;;;;;;;2.37;0.20;;;;;;;;;;5027734;28;20222;-59
2022/01/20 08:45:26;;;;;;;2.93;0.30;;;;;;;;;;5027543;28;20468;-59
2022/01/20 08:47:56;;;;;;;1.13;0.30;;;;;;;;;;5027129;28;20595;-61
2022/01/20 08:50:24;;;;;;;0.20;0.20;;;;;;;;;;5030450;28;20255;-59
2022/01/20 08:52:51;;;;;;;1.13;0.53;;;;;;;;;;5030941;28;20752;-59
2022/01/20 08:55:19;;;;;;;0.60;0.60;;;;;;;;;;5030911;28;20216;-59
2022/01/20 08:57:47;;;;;;;0.90;0.27;;;;;;;;;;5030878;28;20215;-59
2022/01/20 09:00:15;;;;;;;0.40;0.40;;;;;;;;;;5031025;28;20229;-59
2022/01/20 09:02:42;;;;;;;0.27;0.27;;;;;;;;;;5030624;28;20250;-59
2022/01/20 09:05:11;;;;;;;0.53;0.50;;;;;;;;;;5030168;28;20274;-62
2022/01/20 09:07:38;;;;;;;0.77;0.30;;;;;;;;;;5029826;28;20214;-60
2022/01/20 09:10:07;;;;;;;1.17;0.30;;;;;;;;;;5029963;28;20225;-60
2022/01/20 09:15:28;;;;;;;0.87;0.30;;;;;;;;;;5029964;28;20323;-60
2022/01/20 09:17:56;;;;;;;0.23;0.23;;;;;;;;;;5030358;28;20215;-60
2022/01/20 09:20:25;;;;;;;0.97;0.60;;;;;;;;;;5029797;28;20222;-60
2022/01/20 09:22:54;;;;;;;0.30;0.30;;;;;;;;;;5029883;28;20216;-60
2022/01/20 09:25:21;;;;;;;0.40;0.40;;;;;;;;;;5029928;28;20248;-60
2022/01/20 09:27:50;;;;;;;0.30;0.30;;;;;;;;;;5030004;28;20216;-60
2022/01/20 09:30:19;;;;;;;0.83;0.30;;;;;;;;;;5030055;28;20207;-60
2022/01/20 09:32:56;;;;;;;1.37;0.57;;;;;;;;;;5030169;28;20218;-60
2022/01/20 09:35:25;;;;;;;0.57;0.37;;;;;;;;;;5030868;28;20243;-60
2022/01/20 09:37:52;;;;;;;1.60;0.50;;;;;;;;;;5030967;28;20222;-60
2022/01/20 09:40:19;;;;;;;0.60;0.60;;;;;;;;;;5030490;28;20277;-60
2022/01/20 09:42:46;;;;;;;0.77;0.50;;;;;;;;;;5030642;28;20212;-61
2022/01/20 09:45:15;;;;;;;1.00;0.50;;;;;;;;;;5030841;28;20302;-60
2022/01/20 09:47:43;;;;;;;4.63;0.47;;;;;;;;;;5030794;28;20299;-60
2022/01/20 09:50:11;;;;;;;1.43;0.70;;;;;;;;;;5029960;28;20243;-60
2022/01/20 09:52:39;;;;;;;1.07;0.57;;;;;;;;;;5029928;28;20705;-61
2022/01/20 09:55:06;;;;;;;0.30;0.30;;;;;;;;;;5030041;28;20215;-61
2022/01/20 09:57:33;;;;;;;1.33;0.73;;;;;;;;;;5029761;28;20216;-60
2022/01/20 10:00:03;;;;;;;1.47;0.60;;;;;;;;;;5029027;28;20266;-61
2022/01/20 10:02:30;;;;;;;5.20;0.97;;;;;;;;;;5030424;28;20220;-60
2022/01/20 10:04:57;;;;;;;1.37;0.60;;;;;;;;;;5021354;28;20263;-60
2022/01/20 10:07:31;;;;;;;0.60;0.60;;;;;;;;;;5009995;28;20209;-61
2022/01/20 10:10:00;;;;;;;0.50;0.50;;;;;;;;;;5009635;28;20212;-60
2022/01/20 10:12:28;;;;;;;1.03;0.50;;;;;;;;;;5009904;28;20209;-59
2022/01/20 10:14:57;;;;;;;7.03;0.47;;;;;;;;;;5009874;28;20212;-60
2022/01/20 10:17:25;;;;;;;2.00;0.73;;;;;;;;;;5020858;28;20236;-60
2022/01/20 10:19:52;;;;;;;2.10;0.40;;;;;;;;;;5029819;28;20636;-60
2022/01/20 10:22:21;;;;;;;1.90;0.47;;;;;;;;;;5029558;28;20266;-60
2022/01/20 10:24:58;;;;;;;0.67;0.43;;;;;;;;;;5029034;28;20232;-61
2022/01/20 10:27:26;;;;;;;14.37;1.10;;;;;;;;;;5029775;28;20215;-61
2022/01/20 10:29:57;;;;;;;1.70;0.80;;;;;;;;;;5029498;28;20219;-61
2022/01/20 10:32:24;;;;;;;0.83;0.70;;;;;;;;;;5029180;28;20223;-60
2022/01/20 10:35:01;;;;;;;2.00;0.70;;;;;;;;;;5029058;28;20232;-60
2022/01/20 10:37:28;;;;;;;1.47;0.70;;;;;;;;;;5029296;28;20208;-61
2022/01/20 10:40:04;;;;;;;0.73;0.70;;;;;;;;;;5028962;28;20576;-61
2022/01/20 10:42:36;;;;;;;1.93;0.60;;;;;;;;;;5028925;28;20222;-61
2022/01/20 10:45:04;;;;;;;1.07;0.30;;;;;;;;;;5028543;28;20228;-60
2022/01/20 10:47:32;;;;;;;1.77;0.83;;;;;;;;;;5028962;28;20216;-60
2022/01/20 10:50:09;;;;;;;1.07;0.50;;;;;;;;;;5029197;28;20306;-61
2022/01/20 10:52:37;;;;;;;4.07;0.73;;;;;;;;;;5029178;28;20211;-60
2022/01/20 10:55:06;;;;;;;1.30;0.40;;;;;;;;;;5028556;28;20205;-60
2022/01/20 10:57:35;;;;;;;0.60;0.60;;;;;;;;;;5028676;28;20208;-60
2022/01/20 11:00:05;;;;;;;0.70;0.60;;;;;;;;;;5028775;28;20262;-61
2022/01/20 11:02:33;;;;;;;3.30;0.30;;;;;;;;;;5028869;28;20278;-61
2022/01/20 11:05:00;;;;;;;3.77;0.60;;;;;;;;;;5028825;28;20228;-60
2022/01/20 11:07:30;;;;;;;0.43;0.43;;;;;;;;;;5028514;28;20212;-60
2022/01/20 11:10:01;;;;;;;0.50;0.50;;;;;;;;;;5018842;28;20208;-60
2022/01/20 11:12:28;;;;;;;0.60;0.40;;;;;;;;;;5028461;28;20333;-60
2022/01/20 11:14:58;;;;;;;2.20;0.60;;;;;;;;;;5026367;28;20212;-60
2022/01/20 11:17:26;;;;;;;1.27;0.60;;;;;;;;;;5028865;28;20632;-60
2022/01/20 11:19:53;;;;;;;3.23;0.60;;;;;;;;;;5027736;28;20258;-60
2022/01/20 11:22:21;;;;;;;1.70;0.40;;;;;;;;;;5028717;28;20753;-60
2022/01/20 11:24:58;;;;;;;0.53;0.40;;;;;;;;;;5028869;28;20236;-60
2022/01/20 11:27:35;;;;;;;0.43;0.30;;;;;;;;;;5028108;28;20672;-60
2022/01/20 11:30:13;;;;;;;1.07;0.50;;;;;;;;;;5028883;28;20295;-60
2022/01/20 11:32:41;;;;;;;1.50;0.90;;;;;;;;;;5028508;28;20208;-60
2022/01/20 11:35:09;;;;;;;1.10;0.70;;;;;;;;;;5028670;28;20232;-60
2022/01/20 11:37:38;;;;;;;2.00;0.70;;;;;;;;;;5028739;28;20212;-60
2022/01/20 11:40:13;;;;;;;0.60;0.60;;;;;;;;;;5028318;28;20231;-60
2022/01/20 11:42:40;;;;;;;0.90;0.83;;;;;;;;;;5028845;28;20203;-60
2022/01/20 11:45:25;;;;;;;2.40;0.40;;;;;;;;;;5028907;28;20239;-60
2022/01/20 11:47:52;;;;;;;2.83;0.80;;;;;;;;;;5028437;28;20216;-60
2022/01/20 11:50:20;;;;;;;6.53;0.70;;;;;;;;;;5028518;28;20477;-60
2022/01/20 11:52:47;;;;;;;0.50;0.40;;;;;;;;;;5028343;28;20209;-60
2022/01/20 11:55:15;;;;;;;0.50;0.50;;;;;;;;;;5028364;28;20262;-60
2022/01/20 11:57:42;;;;;;;1.03;0.67;;;;;;;;;;5028155;28;20269;-60
2022/01/20 12:00:18;;;;;;;3.30;0.60;;;;;;;;;;5028916;28;20212;-59
2022/01/20 12:02:47;;;;;;;3.47;1.00;;;;;;;;;;5028832;28;20214;-60
2022/01/20 12:05:18;;;;;;;0.60;0.30;;;;;;;;;;5026808;28;20282;-60
2022/01/20 12:07:46;;;;;;;0.60;0.60;;;;;;;;;;5028538;28;20695;-60
2022/01/20 12:10:14;;;;;;;3.30;0.97;;;;;;;;;;5028212;28;20216;-60
2022/01/20 12:12:41;;;;;;;0.90;0.90;;;;;;;;;;5029107;28;20208;-59
2022/01/20 12:15:10;;;;;;;4.63;0.60;;;;;;;;;;5028175;28;20291;-62
2022/01/20 12:17:41;;;;;;;4.53;0.63;;;;;;;;;;5027932;28;20574;-60
2022/01/20 12:20:11;;;;;;;6.47;0.40;;;;;;;;;;5028592;28;20310;-60
2022/01/20 12:22:42;;;;;;;1.03;0.50;;;;;;;;;;5018429;28;20274;-60
2022/01/20 12:25:15;;;;;;;4.57;0.63;;;;;;;;;;5029381;28;20228;-60
2022/01/20 12:27:42;;;;;;;2.10;0.60;;;;;;;;;;5027769;28;20205;-60
2022/01/20 12:30:16;;;;;;;1.43;0.70;;;;;;;;;;5028697;28;20208;-61
2022/01/20 12:32:44;;;;;;;2.60;0.60;;;;;;;;;;5028404;28;20710;-62
2022/01/20 12:35:13;;;;;;;1.13;0.53;;;;;;;;;;5027779;28;20244;-62
2022/01/20 12:37:41;;;;;;;1.57;0.70;;;;;;;;;;5028058;28;20851;-60
2022/01/20 12:40:09;;;;;;;0.60;0.33;;;;;;;;;;5027874;28;20270;-61
2022/01/20 12:42:37;;;;;;;0.53;0.50;;;;;;;;;;5028254;28;20216;-61
2022/01/20 12:45:55;;;;;;;0.40;0.40;;;;;;;;;;5026574;28;20418;-60
2022/01/20 12:47:52;;;;;;;0.67;0.10;;;;;;;;;;5025556;28;20234;-59
2022/01/20 12:50:22;;;;;;;3.33;0.60;;;;;;;;;;5027706;28;20287;-63
2022/01/20 12:52:49;;;;;;;2.90;0.63;;;;;;;;;;5027828;28;20247;-61
2022/01/20 12:55:17;;;;;;;1.90;0.60;;;;;;;;;;5027151;28;20242;-60
2022/01/20 12:57:45;;;;;;;0.47;0.47;;;;;;;;;;5027313;28;20240;-61
2022/01/20 13:00:13;;;;;;;0.10;0.10;;;;;;;;;;5026799;28;20224;-60
2022/01/20 13:02:40;;;;;;;0.40;0.40;;;;;;;;;;5027333;28;20266;-61
2022/01/20 13:05:07;;;;;;;2.00;0.40;;;;;;;;;;5027108;28;20274;-60
2022/01/20 13:07:38;;;;;;;0.10;0.10;;;;;;;;;;5026762;28;20204;-60
2022/01/20 13:10:20;;;;;;;0.20;0.20;;;;;;;;;;5026923;28;20230;-60
2022/01/20 13:12:47;;;;;;;0.40;0.30;;;;;;;;;;5026110;28;20381;-61
2022/01/20 13:15:19;;;;;;;2.53;0.50;;;;;;;;;;5025951;28;20227;-61
2022/01/20 13:17:47;;;;;;;0.60;0.60;;;;;;;;;;5026482;28;20215;-62
2022/01/20 13:20:16;;;;;;;2.00;0.10;;;;;;;;;;5026960;28;21358;-61
2022/01/20 13:22:54;;;;;;;0.40;0.40;;;;;;;;;;5027391;28;20212;-62
2022/01/20 13:25:24;;;;;;;0.53;0.53;;;;;;;;;;5024858;28;20232;-61
2022/01/20 13:27:52;;;;;;;2.00;0.53;;;;;;;;;;5027078;28;20241;-60
2022/01/20 13:30:26;;;;;;;0.50;0.50;;;;;;;;;;5027027;28;20324;-60
2022/01/20 13:32:53;;;;;;;0.73;0.43;;;;;;;;;;5026630;28;20213;-59
2022/01/20 13:35:20;;;;;;;9.53;0.93;;;;;;;;;;5025556;28;20438;-61
2022/01/20 13:37:57;;;;;;;2.13;0.57;;;;;;;;;;5024672;28;20223;-60
2022/01/20 13:40:24;;;;;;;2.13;0.70;;;;;;;;;;5026178;28;20214;-61
2022/01/20 13:45:38;;;;;;;0.70;0.50;;;;;;;;;;5025463;28;20235;-60
2022/01/20 13:48:05;;;;;;;0.47;0.30;;;;;;;;;;5026412;28;20215;-61
2022/01/20 13:50:33;;;;;;;1.33;0.50;;;;;;;;;;5024048;28;20232;-61
2022/01/20 13:53:02;;;;;;;2.10;0.60;;;;;;;;;;5026092;28;20266;-61
2022/01/20 13:55:30;;;;;;;0.40;0.40;;;;;;;;;;5025515;28;20212;-60
2022/01/20 13:57:58;;;;;;;2.77;0.60;;;;;;;;;;5026259;28;20212;-61
2022/01/20 14:00:26;;;;;;;2.27;0.60;;;;;;;;;;5025878;28;20216;-61
2022/01/20 14:02:53;;;;;;;0.50;0.50;;;;;;;;;;5025691;28;20212;-61
2022/01/20 14:05:21;;;;;;;0.30;0.30;;;;;;;;;;5025488;28;20235;-60
2022/01/20 14:07:48;;;;;;;0.50;0.50;;;;;;;;;;5024731;28;20230;-62
2022/01/20 14:10:17;;;;;;;0.27;0.27;;;;;;;;;;5015051;28;20878;-61
2022/01/20 14:12:45;;;;;;;0.50;0.40;;;;;;;;;;5025137;28;20211;-60
2022/01/20 14:15:12;;;;;;;0.23;0.23;;;;;;;;;;5013220;28;20215;-62
2022/01/20 14:17:39;;;;;;;1.20;0.53;;;;;;;;;;5021304;28;20289;-60
2022/01/20 14:20:10;;;;;;;1.03;0.70;;;;;;;;;;5021856;28;20824;-60
2022/01/20 14:22:37;;;;;;;0.70;0.70;;;;;;;;;;5024031;28;20246;-61
2022/01/20 14:25:05;;;;;;;3.03;0.70;;;;;;;;;;5022971;28;20302;-60
2022/01/20 14:27:33;;;;;;;3.43;1.77;;;;;;;;;;5023855;28;20238;-60
2022/01/20 14:30:01;;;;;;;3.30;0.73;;;;;;;;;;5023689;28;20220;-60
2022/01/20 14:32:28;;;;;;;1.10;1.00;;;;;;;;;;5023513;28;20782;-60
2022/01/20 14:34:55;;;;;;;3.97;0.60;;;;;;;;;;5023671;28;20247;-61
2022/01/20 14:37:22;;;;;;;0.60;0.60;;;;;;;;;;5023414;28;20739;-61
2022/01/20 14:39:49;;;;;;;0.33;0.33;;;;;;;;;;5023989;28;20221;-60
2022/01/20 14:42:16;;;;;;;0.50;0.30;;;;;;;;;;5023315;28;20227;-60
2022/01/20 14:44:47;;;;;;;1.60;0.70;;;;;;;;;;5024068;28;20219;-60
2022/01/20 14:47:15;;;;;;;0.30;0.30;;;;;;;;;;5022689;28;20260;-60
2022/01/20 14:49:42;;;;;;;1.03;0.60;;;;;;;;;;5023924;28;20223;-61
2022/01/20 14:52:09;;;;;;;0.73;0.60;;;;;;;;;;5024528;28;20229;-61
2022/01/20 14:54:36;;;;;;;1.53;0.60;;;;;;;;;;5024327;28;20210;-61
2022/01/20 14:57:05;;;;;;;1.87;0.33;;;;;;;;;;5021311;28;20690;-61
2022/01/20 14:59:33;;;;;;;7.40;0.80;;;;;;;;;;5022914;28;20223;-61
2022/01/20 15:02:02;;;;;;;4.27;0.97;;;;;;;;;;5022999;28;20294;-61
2022/01/20 15:04:29;;;;;;;1.00;0.80;;;;;;;;;;5022751;28;20227;-61
2022/01/20 15:06:56;;;;;;;5.83;0.50;;;;;;;;;;5022529;28;20236;-61
2022/01/20 15:09:26;;;;;;;0.60;0.60;;;;;;;;;;5023331;28;20239;-60
2022/01/20 15:11:53;;;;;;;0.40;0.40;;;;;;;;;;5023165;28;20217;-61
2022/01/20 15:14:22;;;;;;;1.17;0.60;;;;;;;;;;5023342;28;20218;-61
2022/01/20 15:16:49;;;;;;;2.67;0.47;;;;;;;;;;5023000;28;20756;-61
2022/01/20 15:19:18;;;;;;;0.90;0.90;;;;;;;;;;5023244;28;20629;-61
2022/01/20 15:21:45;;;;;;;0.97;0.90;;;;;;;;;;5021754;28;20219;-61
2022/01/20 15:24:12;;;;;;;0.50;0.50;;;;;;;;;;5022937;28;20217;-62
2022/01/20 15:26:41;;;;;;;5.23;1.13;;;;;;;;;;5022626;28;20232;-61
2022/01/20 15:29:08;;;;;;;5.63;1.70;;;;;;;;;;5022947;28;20206;-61
2022/01/20 15:31:36;;;;;;;4.10;0.97;;;;;;;;;;5022678;28;20489;-61
2022/01/20 15:34:04;;;;;;;3.50;1.17;;;;;;;;;;5022894;28;20651;-61
2022/01/20 15:36:32;;;;;;;3.83;1.10;;;;;;;;;;5022831;28;20597;-61
2022/01/20 15:39:00;;;;;;;0.83;0.83;;;;;;;;;;5021938;28;20278;-61
2022/01/20 15:41:27;;;;;;;2.07;1.30;;;;;;;;;;5022421;28;20809;-62
2022/01/20 15:43:54;;;;;;;3.27;0.90;;;;;;;;;;5023218;28;20745;-61
2022/01/20 15:46:21;;;;;;;3.77;1.03;;;;;;;;;;5022453;28;20267;-61